Gródek Trail

Wydarzenie:
Gródek Trail Gródek Trail
Organizator:
Max Fun
Data:
28.10.2018
Miejsce:
Jaworzno
Dystans:
10.0 km
Zgłoszonych:
167
Ukończyło:
163
Nieklasyfikowani:
4
Na trasie:
0
Klasyfikacja wg czasów brutto

Klasyfikacja w kategorii: (M35)

Poz Nr Nazwisko, Imię PłećKategoriaKlubMiastoCzas nettoMetaStrataTempo
1 181 Stachowicz Tomasz M (1) M35 (1) KS Olkusz Olkusz 41:24,4 41:24,4 04:08
2 51 Jachymczyk Norbert M (4) M35 (2) KB MCKiS Jaworzno Jaworzno 43:49,4 43:50,1 02:25,7 04:23
3 172 Zdąbłarz Marcin M (5) M35 (3) Chrzanów 44:32,8 44:34,1 03:09,7 04:27
4 108 Padewski Artur M (6) M35 (4) Trail Runners Jaworzno Jaworzno 44:52,8 44:53,9 03:29,5 04:29
5 154 Szkoda Dariusz M (7) M35 (5) SOCIOS SILESIA Ruda Śląska 45:11,0 45:11,0 03:46,6 04:31
6 183 Nikiel Szymon M (8) M35 (6) 47:00,7 47:00,7 05:36,3 04:42
7 65 KILJAN MARIUSZ M (9) M35 (7) KB Mckis Jaworzno Jaworzno 47:13,1 47:13,1 05:48,7 04:43
8 127 Pytlarz Wojtek M (10) M35 (8) Goniacka team Bielsko-Biała 47:18,4 47:20,4 05:56,0 04:44
9 165 Wiśniowski Mariusz M (12) M35 (9) Jaworzno 47:31,6 47:36,7 06:12,3 04:45
10 23 Czarny Mariusz M (14) M35 (10) JaworznoŁBC Jaworzno 47:56,8 48:02,2 06:37,8 04:48
11 56 Jurewicz Krzysztof M (15) M35 (11) Harpagan Sosnowiec Sosnowiec 48:04,9 48:07,9 06:43,5 04:48
12 31 Drogosz Damian M (16) M35 (12) Crazy Runners Czechowice -Dziedzice 48:09,7 48:10,3 06:45,9 04:49
13 98 Musioł Andrzej M (17) M35 (13) Team Papry Tychy 48:32,2 48:32,7 07:08,3 04:51
14 34 Dymanus Damian M (18) M35 (14) parkrun Chrzanów Jaworzno 48:45,1 48:47,6 07:23,2 04:52
15 18 BUKOWSKI EDWARD M (22) M35 (15) Kluczborska Grupa Biegowa KLUCZBORK 50:20,5 50:20,6 08:56,2 05:02
16 72 KORCZ DANIEL M (23) M35 (16) KB MCKiS Jaworzno JAWORZNO 50:25,3 50:25,3 09:00,9 05:02
17 120 Piętak Jacek M (24) M35 (17) PRESS GLASS Biegamy i Wspieramy Jaworzno 50:26,0 50:28,0 09:03,6 05:02
18 27 Dembecki Marcin M (25) M35 (18) Łemko Staff Siemianowice Śląskie 50:35,4 50:39,1 09:14,7 05:03
19 125 Potoczny Mirosław M (27) M35 (19) Trail Runners Jaworzno Jaworzno 51:25,6 51:30,3 10:05,9 05:09
20 141 Smalcerz Michał M (28) M35 (20) NajlepszaForma.pl Dąbrowa Górnicza 52:13,9 52:15,9 10:51,5 05:13
21 44 Gliniecki Bartlomiej M (30) M35 (21) KB MCKIS JAWORZNO Jaworzno 54:09,7 54:11,6 12:47,2 05:25
22 94 Małkiewicz Dariusz M (37) M35 (22) PGB Sportowa Paczka Katowice 54:43,6 54:50,6 13:26,2 05:29
23 104 Nusbaum Irek M (39) M35 (23) Jaworzno 54:42,3 54:58,2 13:33,8 05:29
24 38 FILIPEK Przemysław M (40) M35 (24) KB MCKiS Jaworzno Jaworzno 55:01,0 55:04,3 13:39,9 05:30
25 105 Obertyn Roman M (42) M35 (25) JAWORZNO 55:19,1 55:21,8 13:57,4 05:32
26 118 Pieczara Krzysztof M (43) M35 (26) KB MCKiS Jaworzno Jaworzno 55:30,8 55:35,5 14:11,1 05:33
27 84 Kuliński Maciej M (44) M35 (27) Grupa Jura PL Zawiercie 55:39,8 55:46,1 14:21,7 05:34
28 116 Pieczara Marcin M (45) M35 (28) Jaworzno 56:09,6 56:15,9 14:51,5 05:37
29 71 Kopeć Artur M (46) M35 (29) KB MCKiS JAWORZNO JAWORZNO 56:42,1 56:46,2 15:21,8 05:40
30 134 Rykalski Damian M (47) M35 (30) KB MCKiS Jaworzno Jaworzno 56:42,2 56:46,6 15:22,2 05:40
31 157 Tarnwski Andrzej M (48) M35 (31) Kb Mckis Jaworzno Jaworzno 56:42,5 57:01,0 15:36,6 05:42
32 50 HOŁDA Konrad M (49) M35 (32) Jaworzno 57:02,0 57:11,8 15:47,4 05:43
33 130 ROCZKALSKI MIROSŁAW M (50) M35 (33) Jaworzno 57:37,4 57:38,2 16:13,8 05:45
34 40 Gędłek Tomasz M (51) M35 (34) Chciałemsepobiegać Jaworzno 57:44,0 57:49,9 16:25,5 05:46
35 122 Plesinski Sebastian M (54) M35 (35) DSV Running Team Sosnowiec 58:00,3 58:18,2 16:53,8 05:49
36 109 Paluch Daniel M (55) M35 (36) KUŹNIA BIEGOWA DĄBROWA GÓRNICZA 58:11,1 58:23,2 16:58,8 05:50
37 61 Kaszuba Łukasz M (56) M35 (37) #czeladzbiega Czeladź 58:14,3 58:24,2 16:59,8 05:50
38 121 Pióro Grzegorz M (57) M35 (38) Zadyszka Oświęcim Oświęcim 58:20,6 58:29,4 17:05,0 05:50
39 2 Bartula Jan M (58) M35 (39) parkrun Chrzanów Libiąż 58:28,1 58:35,1 17:10,7 05:51
40 92 MALCIAK IRENEUSZ M (60) M35 (40) Jaworzno 58:34,3 58:48,6 17:24,2 05:52
41 111 Panek Krzysztof M (61) M35 (41) Team Papry Bieruń 58:47,4 58:50,3 17:25,9 05:53
42 59 kadula piotr M (62) M35 (42) Jaworzno 58:52,6 58:56,0 17:31,6 05:53
43 151 Szarek Rafał M (63) M35 (43) KB MCKIS Jaworzno Jaworzno 58:59,9 59:05,0 17:40,6 05:54
44 39 Gawron Konrad M (64) M35 (44) HARPAGAN SOSNOWIEC Sosnowiec 59:14,1 59:16,8 17:52,4 05:55
45 139 SKIBICKI KRZYSZTOF M (67) M35 (45) ZADYSZKA OŚWIĘCIM Oświęcim 59:55,6 1:00:15,2 18:50,8 06:01
46 3 Bąk Tymoteusz M (74) M35 (46) i-systems Gliwice 1:01:15,6 1:01:20,3 19:55,9 06:08
47 177 Boś Przemysław M (77) M35 (47) KB MCKIS JAWORZNO/JAWORZNO RUNNERS Jaworzno 1:02:03,1 1:02:16,6 20:52,2 06:13
48 83 Bujak Marek M (79) M35 (48) #czeladźbiega Czeladź 1:02:27,1 1:02:36,8 21:12,4 06:15
49 42 Gierlotka Maciej M (81) M35 (49) Katowice 1:03:09,3 1:03:16,1 21:51,7 06:19
50 173 Ziębiński Adam M (82) M35 (50) olkuszbiega.pl Bukowno 1:03:13,6 1:03:26,0 22:01,6 06:20
51 48 Hamik Rafał M (84) M35 (51) Hamster Team Chełm Śląski 1:03:28,9 1:03:35,6 22:11,2 06:21
52 78 Kral Sebastian M (88) M35 (52) Jaworzno 1:04:54,1 1:05:11,8 23:47,4 06:31
53 113 Pawelczak Adam M (89) M35 (53) Stare Babice 1:04:59,8 1:05:17,3 23:52,9 06:31
54 114 Pawelec Sebastian M (91) M35 (54) HARPAGAN SOSNOWIEC Sosnowiec 1:07:55,1 1:08:05,5 26:41,1 06:48
55 142 SMOLIK MICHAŁ M (92) M35 (55) JAWORZNO 1:08:03,0 1:08:21,4 26:57,0 06:50
56 129 Radziejewski Zenon M (93) M35 (56) Jaworzno 1:10:48,6 1:11:00,8 29:36,4 07:06
57 144 Sobota Mariusz M (94) M35 (57) KB MCKIS JAWORZNO Jaworzno 1:10:51,0 1:11:04,4 29:40,0 07:06
58 115 Pawłowski Rafał M (96) M35 (58) DSV Jaworzno 1:12:20,2 1:12:38,1 31:13,7 07:15
59 82 Kuciel Artur M (97) M35 (59) Jaworzno 1:13:32,2 1:13:53,9 32:29,5 07:23
60 156 Śmieja Tomasz M (99) M35 (60) BANDA Z POŁUDNIA Ģliwice 1:16:50,6 1:17:10,7 35:46,3 07:43
61 26 Dąbrowiak Marcin M (103) M35 (61) Harpagan Sosnowiec Sosnowiec 1:18:25,2 1:18:25,2 37:00,8 07:50
62 15 Brzozowski Piotr M (104) M35 (62) KB MCKiS JAWORZNO JAWORZNO 1:18:39,4 1:18:55,9 37:31,5 07:53
DNS 160 ULMAN MARCIN M M35 Jaworzno
DNF 169 Wójcik Dawid M M35 parkrun Chrzanów Luszowice

BGTimeSport © 2015-2020